sensor_id;sensor_type;location;lat;lon;timestamp;P1;durP1;ratioP1;P2;durP2;ratioP2
37339;SDS011;23223;51.006;7.610;2023-11-21T00:01:40;14.57;;;7.68;;
37339;SDS011;23223;51.006;7.610;2023-11-21T00:04:06;14.48;;;7.53;;
37339;SDS011;23223;51.006;7.610;2023-11-21T00:06:32;17.65;;;7.80;;
37339;SDS011;23223;51.006;7.610;2023-11-21T00:08:59;14.23;;;7.50;;
37339;SDS011;23223;51.006;7.610;2023-11-21T00:11:24;10.38;;;7.55;;
37339;SDS011;23223;51.006;7.610;2023-11-21T00:13:50;14.90;;;6.05;;
37339;SDS011;23223;51.006;7.610;2023-11-21T00:16:16;12.05;;;7.90;;
37339;SDS011;23223;51.006;7.610;2023-11-21T00:18:41;7.18;;;5.55;;
37339;SDS011;23223;51.006;7.610;2023-11-21T00:21:07;9.93;;;6.53;;
37339;SDS011;23223;51.006;7.610;2023-11-21T00:23:34;11.63;;;5.95;;
37339;SDS011;23223;51.006;7.610;2023-11-21T00:26:00;16.90;;;8.07;;
37339;SDS011;23223;51.006;7.610;2023-11-21T00:28:26;14.48;;;7.30;;
37339;SDS011;23223;51.006;7.610;2023-11-21T00:30:51;11.77;;;7.85;;
37339;SDS011;23223;51.006;7.610;2023-11-21T00:33:17;19.92;;;7.57;;
37339;SDS011;23223;51.006;7.610;2023-11-21T00:35:42;16.95;;;8.10;;
37339;SDS011;23223;51.006;7.610;2023-11-21T00:38:08;10.77;;;7.63;;
37339;SDS011;23223;51.006;7.610;2023-11-21T00:40:34;15.40;;;8.07;;
37339;SDS011;23223;51.006;7.610;2023-11-21T00:42:59;9.48;;;6.18;;
37339;SDS011;23223;51.006;7.610;2023-11-21T00:45:25;12.05;;;6.82;;
37339;SDS011;23223;51.006;7.610;2023-11-21T00:47:51;11.45;;;7.50;;
37339;SDS011;23223;51.006;7.610;2023-11-21T00:50:17;18.33;;;8.10;;
37339;SDS011;23223;51.006;7.610;2023-11-21T00:52:42;10.98;;;7.35;;
37339;SDS011;23223;51.006;7.610;2023-11-21T00:55:08;16.30;;;6.78;;
37339;SDS011;23223;51.006;7.610;2023-11-21T00:57:34;18.35;;;6.95;;
37339;SDS011;23223;51.006;7.610;2023-11-21T01:00:00;14.95;;;6.97;;
37339;SDS011;23223;51.006;7.610;2023-11-21T01:02:25;14.73;;;6.05;;
37339;SDS011;23223;51.006;7.610;2023-11-21T01:04:51;12.18;;;6.40;;
37339;SDS011;23223;51.006;7.610;2023-11-21T01:07:17;12.65;;;6.75;;
37339;SDS011;23223;51.006;7.610;2023-11-21T01:09:45;11.80;;;8.45;;
37339;SDS011;23223;51.006;7.610;2023-11-21T01:12:11;19.17;;;7.70;;
37339;SDS011;23223;51.006;7.610;2023-11-21T01:14:36;10.35;;;6.95;;
37339;SDS011;23223;51.006;7.610;2023-11-21T01:17:02;13.75;;;6.88;;
37339;SDS011;23223;51.006;7.610;2023-11-21T01:19:29;14.15;;;6.65;;
37339;SDS011;23223;51.006;7.610;2023-11-21T01:21:55;14.45;;;6.68;;
37339;SDS011;23223;51.006;7.610;2023-11-21T01:24:23;12.43;;;7.45;;
37339;SDS011;23223;51.006;7.610;2023-11-21T01:26:48;14.35;;;7.80;;
37339;SDS011;23223;51.006;7.610;2023-11-21T01:29:14;14.57;;;7.72;;
37339;SDS011;23223;51.006;7.610;2023-11-21T01:31:40;15.65;;;6.93;;
37339;SDS011;23223;51.006;7.610;2023-11-21T01:34:06;11.73;;;6.03;;
37339;SDS011;23223;51.006;7.610;2023-11-21T01:36:32;14.48;;;7.13;;
37339;SDS011;23223;51.006;7.610;2023-11-21T01:38:58;18.27;;;6.03;;
37339;SDS011;23223;51.006;7.610;2023-11-21T01:41:25;16.25;;;7.03;;
37339;SDS011;23223;51.006;7.610;2023-11-21T01:43:54;12.63;;;6.50;;
37339;SDS011;23223;51.006;7.610;2023-11-21T01:46:20;10.13;;;6.35;;
37339;SDS011;23223;51.006;7.610;2023-11-21T01:48:47;11.18;;;6.57;;
37339;SDS011;23223;51.006;7.610;2023-11-21T01:51:13;12.80;;;6.22;;
37339;SDS011;23223;51.006;7.610;2023-11-21T01:53:39;11.45;;;5.78;;
37339;SDS011;23223;51.006;7.610;2023-11-21T01:56:05;10.32;;;6.25;;
37339;SDS011;23223;51.006;7.610;2023-11-21T01:58:33;15.05;;;6.53;;
37339;SDS011;23223;51.006;7.610;2023-11-21T02:00:59;11.80;;;6.68;;
37339;SDS011;23223;51.006;7.610;2023-11-21T02:03:24;17.58;;;6.63;;
37339;SDS011;23223;51.006;7.610;2023-11-21T02:05:51;11.98;;;8.15;;
37339;SDS011;23223;51.006;7.610;2023-11-21T02:08:18;12.50;;;7.22;;
37339;SDS011;23223;51.006;7.610;2023-11-21T02:10:44;15.18;;;7.75;;
37339;SDS011;23223;51.006;7.610;2023-11-21T02:13:10;13.43;;;7.63;;
37339;SDS011;23223;51.006;7.610;2023-11-21T02:15:36;10.13;;;7.03;;
37339;SDS011;23223;51.006;7.610;2023-11-21T02:18:03;16.92;;;7.60;;
37339;SDS011;23223;51.006;7.610;2023-11-21T02:20:31;15.93;;;7.28;;
37339;SDS011;23223;51.006;7.610;2023-11-21T02:22:59;10.48;;;6.70;;
37339;SDS011;23223;51.006;7.610;2023-11-21T02:25:30;11.38;;;5.70;;
37339;SDS011;23223;51.006;7.610;2023-11-21T02:27:57;13.73;;;6.78;;
37339;SDS011;23223;51.006;7.610;2023-11-21T02:30:27;12.20;;;6.28;;
37339;SDS011;23223;51.006;7.610;2023-11-21T02:32:54;16.45;;;6.82;;
37339;SDS011;23223;51.006;7.610;2023-11-21T02:35:22;16.23;;;7.32;;
37339;SDS011;23223;51.006;7.610;2023-11-21T02:37:48;8.25;;;6.25;;
37339;SDS011;23223;51.006;7.610;2023-11-21T02:40:14;13.40;;;7.50;;
37339;SDS011;23223;51.006;7.610;2023-11-21T02:42:43;14.48;;;8.25;;
37339;SDS011;23223;51.006;7.610;2023-11-21T02:45:09;13.45;;;7.68;;
37339;SDS011;23223;51.006;7.610;2023-11-21T02:47:38;11.40;;;6.72;;
37339;SDS011;23223;51.006;7.610;2023-11-21T02:50:04;17.63;;;8.30;;
37339;SDS011;23223;51.006;7.610;2023-11-21T02:52:31;17.70;;;8.48;;
37339;SDS011;23223;51.006;7.610;2023-11-21T02:54:58;34.38;;;8.32;;
37339;SDS011;23223;51.006;7.610;2023-11-21T02:57:23;8.70;;;5.35;;
37339;SDS011;23223;51.006;7.610;2023-11-21T02:59:49;13.75;;;7.57;;
37339;SDS011;23223;51.006;7.610;2023-11-21T03:02:15;17.58;;;8.13;;
37339;SDS011;23223;51.006;7.610;2023-11-21T03:04:41;12.85;;;6.88;;
37339;SDS011;23223;51.006;7.610;2023-11-21T03:07:07;15.82;;;7.78;;
37339;SDS011;23223;51.006;7.610;2023-11-21T03:09:34;18.08;;;7.95;;
37339;SDS011;23223;51.006;7.610;2023-11-21T03:12:00;13.30;;;8.05;;
37339;SDS011;23223;51.006;7.610;2023-11-21T03:14:25;11.77;;;7.60;;
37339;SDS011;23223;51.006;7.610;2023-11-21T03:16:51;27.77;;;7.85;;
37339;SDS011;23223;51.006;7.610;2023-11-21T03:19:16;18.40;;;8.57;;
37339;SDS011;23223;51.006;7.610;2023-11-21T03:21:42;5.07;;;4.30;;
37339;SDS011;23223;51.006;7.610;2023-11-21T03:24:09;10.00;;;5.25;;
37339;SDS011;23223;51.006;7.610;2023-11-21T03:26:34;21.23;;;8.10;;
37339;SDS011;23223;51.006;7.610;2023-11-21T03:29:00;15.68;;;8.48;;
37339;SDS011;23223;51.006;7.610;2023-11-21T03:31:25;12.93;;;7.85;;
37339;SDS011;23223;51.006;7.610;2023-11-21T03:33:51;23.98;;;8.15;;
37339;SDS011;23223;51.006;7.610;2023-11-21T03:36:19;16.35;;;8.52;;
37339;SDS011;23223;51.006;7.610;2023-11-21T03:38:44;19.20;;;7.18;;
37339;SDS011;23223;51.006;7.610;2023-11-21T03:41:10;13.05;;;7.85;;
37339;SDS011;23223;51.006;7.610;2023-11-21T03:43:36;14.82;;;8.32;;
37339;SDS011;23223;51.006;7.610;2023-11-21T03:46:02;12.07;;;7.80;;
37339;SDS011;23223;51.006;7.610;2023-11-21T03:48:28;16.17;;;7.93;;
37339;SDS011;23223;51.006;7.610;2023-11-21T03:50:54;12.15;;;7.13;;
37339;SDS011;23223;51.006;7.610;2023-11-21T03:53:20;13.20;;;7.40;;
37339;SDS011;23223;51.006;7.610;2023-11-21T03:55:45;15.77;;;7.00;;
37339;SDS011;23223;51.006;7.610;2023-11-21T03:58:11;12.02;;;6.53;;
37339;SDS011;23223;51.006;7.610;2023-11-21T04:00:36;11.98;;;6.97;;
37339;SDS011;23223;51.006;7.610;2023-11-21T04:03:02;10.55;;;6.65;;
37339;SDS011;23223;51.006;7.610;2023-11-21T04:05:28;18.88;;;7.20;;
37339;SDS011;23223;51.006;7.610;2023-11-21T04:07:53;8.13;;;5.10;;
37339;SDS011;23223;51.006;7.610;2023-11-21T04:10:19;17.85;;;6.55;;
37339;SDS011;23223;51.006;7.610;2023-11-21T04:12:45;13.73;;;6.50;;
37339;SDS011;23223;51.006;7.610;2023-11-21T04:15:11;8.05;;;6.20;;
37339;SDS011;23223;51.006;7.610;2023-11-21T04:17:38;10.70;;;6.88;;
37339;SDS011;23223;51.006;7.610;2023-11-21T04:20:04;13.45;;;6.55;;
37339;SDS011;23223;51.006;7.610;2023-11-21T04:22:38;12.63;;;6.65;;
37339;SDS011;23223;51.006;7.610;2023-11-21T04:25:13;17.73;;;7.18;;
37339;SDS011;23223;51.006;7.610;2023-11-21T04:27:39;13.57;;;7.78;;
37339;SDS011;23223;51.006;7.610;2023-11-21T04:30:08;13.48;;;7.13;;
37339;SDS011;23223;51.006;7.610;2023-11-21T04:32:34;11.20;;;6.03;;
37339;SDS011;23223;51.006;7.610;2023-11-21T04:35:00;13.02;;;6.78;;
37339;SDS011;23223;51.006;7.610;2023-11-21T04:37:26;15.00;;;7.93;;
37339;SDS011;23223;51.006;7.610;2023-11-21T04:39:52;19.60;;;8.88;;
37339;SDS011;23223;51.006;7.610;2023-11-21T04:42:17;13.90;;;8.13;;
37339;SDS011;23223;51.006;7.610;2023-11-21T04:44:43;19.48;;;8.25;;
37339;SDS011;23223;51.006;7.610;2023-11-21T04:47:09;18.05;;;9.02;;
37339;SDS011;23223;51.006;7.610;2023-11-21T04:49:35;17.75;;;9.77;;
37339;SDS011;23223;51.006;7.610;2023-11-21T04:52:00;14.95;;;9.27;;
37339;SDS011;23223;51.006;7.610;2023-11-21T04:54:26;18.73;;;9.60;;
37339;SDS011;23223;51.006;7.610;2023-11-21T04:56:52;16.30;;;8.35;;
37339;SDS011;23223;51.006;7.610;2023-11-21T04:59:18;10.88;;;6.95;;
37339;SDS011;23223;51.006;7.610;2023-11-21T05:01:43;13.98;;;10.10;;
37339;SDS011;23223;51.006;7.610;2023-11-21T05:04:09;14.85;;;8.07;;
37339;SDS011;23223;51.006;7.610;2023-11-21T05:06:34;15.23;;;9.68;;
37339;SDS011;23223;51.006;7.610;2023-11-21T05:09:00;18.10;;;9.23;;
37339;SDS011;23223;51.006;7.610;2023-11-21T05:11:26;19.20;;;9.35;;
37339;SDS011;23223;51.006;7.610;2023-11-21T05:13:52;16.38;;;9.18;;
37339;SDS011;23223;51.006;7.610;2023-11-21T05:16:21;14.30;;;8.98;;
37339;SDS011;23223;51.006;7.610;2023-11-21T05:18:47;17.95;;;9.88;;
37339;SDS011;23223;51.006;7.610;2023-11-21T05:21:13;20.05;;;8.68;;
37339;SDS011;23223;51.006;7.610;2023-11-21T05:23:40;17.45;;;9.50;;
37339;SDS011;23223;51.006;7.610;2023-11-21T05:26:05;17.20;;;8.50;;
37339;SDS011;23223;51.006;7.610;2023-11-21T05:28:31;13.65;;;8.40;;
37339;SDS011;23223;51.006;7.610;2023-11-21T05:30:57;11.55;;;6.70;;
37339;SDS011;23223;51.006;7.610;2023-11-21T05:33:22;19.25;;;9.32;;
37339;SDS011;23223;51.006;7.610;2023-11-21T05:35:48;16.67;;;8.95;;
37339;SDS011;23223;51.006;7.610;2023-11-21T05:38:14;14.35;;;8.52;;
37339;SDS011;23223;51.006;7.610;2023-11-21T05:40:39;14.45;;;8.82;;
37339;SDS011;23223;51.006;7.610;2023-11-21T05:43:05;17.77;;;9.95;;
37339;SDS011;23223;51.006;7.610;2023-11-21T05:45:31;20.88;;;8.90;;
37339;SDS011;23223;51.006;7.610;2023-11-21T05:47:58;15.57;;;7.00;;
37339;SDS011;23223;51.006;7.610;2023-11-21T05:50:24;20.40;;;8.95;;
37339;SDS011;23223;51.006;7.610;2023-11-21T05:52:49;17.98;;;8.43;;
37339;SDS011;23223;51.006;7.610;2023-11-21T05:55:15;15.80;;;7.68;;
37339;SDS011;23223;51.006;7.610;2023-11-21T05:57:41;20.15;;;7.80;;
37339;SDS011;23223;51.006;7.610;2023-11-21T06:00:09;5.45;;;4.07;;
37339;SDS011;23223;51.006;7.610;2023-11-21T06:02:50;15.70;;;8.88;;
37339;SDS011;23223;51.006;7.610;2023-11-21T06:05:18;15.48;;;8.65;;
37339;SDS011;23223;51.006;7.610;2023-11-21T06:07:45;12.88;;;8.50;;
37339;SDS011;23223;51.006;7.610;2023-11-21T06:10:11;17.40;;;8.38;;
37339;SDS011;23223;51.006;7.610;2023-11-21T06:12:42;12.95;;;8.25;;
37339;SDS011;23223;51.006;7.610;2023-11-21T06:15:08;18.08;;;8.48;;
37339;SDS011;23223;51.006;7.610;2023-11-21T06:17:38;18.58;;;8.73;;
37339;SDS011;23223;51.006;7.610;2023-11-21T06:20:08;16.70;;;10.60;;
37339;SDS011;23223;51.006;7.610;2023-11-21T06:22:35;12.18;;;9.25;;
37339;SDS011;23223;51.006;7.610;2023-11-21T06:25:04;18.33;;;10.30;;
37339;SDS011;23223;51.006;7.610;2023-11-21T06:27:37;20.15;;;10.13;;
37339;SDS011;23223;51.006;7.610;2023-11-21T06:30:05;18.63;;;7.97;;
37339;SDS011;23223;51.006;7.610;2023-11-21T06:32:34;17.13;;;7.63;;
37339;SDS011;23223;51.006;7.610;2023-11-21T06:35:01;16.98;;;8.73;;
37339;SDS011;23223;51.006;7.610;2023-11-21T06:37:30;21.75;;;9.82;;
37339;SDS011;23223;51.006;7.610;2023-11-21T06:39:56;23.63;;;8.85;;
37339;SDS011;23223;51.006;7.610;2023-11-21T06:42:23;23.75;;;9.77;;
37339;SDS011;23223;51.006;7.610;2023-11-21T06:44:49;21.98;;;10.57;;
37339;SDS011;23223;51.006;7.610;2023-11-21T06:47:19;20.13;;;10.00;;
37339;SDS011;23223;51.006;7.610;2023-11-21T06:49:51;24.35;;;10.00;;
37339;SDS011;23223;51.006;7.610;2023-11-21T06:52:17;19.90;;;10.77;;
37339;SDS011;23223;51.006;7.610;2023-11-21T06:54:44;15.68;;;9.07;;
37339;SDS011;23223;51.006;7.610;2023-11-21T06:57:10;20.77;;;9.75;;
37339;SDS011;23223;51.006;7.610;2023-11-21T06:59:36;18.92;;;9.80;;
37339;SDS011;23223;51.006;7.610;2023-11-21T07:02:02;20.70;;;9.88;;
37339;SDS011;23223;51.006;7.610;2023-11-21T07:04:29;17.25;;;9.32;;
37339;SDS011;23223;51.006;7.610;2023-11-21T07:06:55;19.65;;;11.18;;
37339;SDS011;23223;51.006;7.610;2023-11-21T07:09:21;18.95;;;10.50;;
37339;SDS011;23223;51.006;7.610;2023-11-21T07:11:47;15.82;;;10.75;;
37339;SDS011;23223;51.006;7.610;2023-11-21T07:14:14;21.20;;;10.70;;
37339;SDS011;23223;51.006;7.610;2023-11-21T07:16:40;19.85;;;10.70;;
37339;SDS011;23223;51.006;7.610;2023-11-21T07:19:05;23.27;;;11.98;;
37339;SDS011;23223;51.006;7.610;2023-11-21T07:21:32;17.77;;;11.13;;
37339;SDS011;23223;51.006;7.610;2023-11-21T07:23:59;21.17;;;12.90;;
37339;SDS011;23223;51.006;7.610;2023-11-21T07:26:26;22.98;;;13.75;;
37339;SDS011;23223;51.006;7.610;2023-11-21T07:28:52;24.92;;;12.13;;
37339;SDS011;23223;51.006;7.610;2023-11-21T07:31:18;24.13;;;14.48;;
37339;SDS011;23223;51.006;7.610;2023-11-21T07:33:45;27.92;;;14.52;;
37339;SDS011;23223;51.006;7.610;2023-11-21T07:36:14;26.33;;;14.18;;
37339;SDS011;23223;51.006;7.610;2023-11-21T07:38:40;17.05;;;10.70;;
37339;SDS011;23223;51.006;7.610;2023-11-21T07:41:06;18.15;;;11.90;;
37339;SDS011;23223;51.006;7.610;2023-11-21T07:43:33;13.95;;;7.55;;
37339;SDS011;23223;51.006;7.610;2023-11-21T07:46:03;16.67;;;11.00;;
37339;SDS011;23223;51.006;7.610;2023-11-21T07:48:30;14.98;;;8.80;;
37339;SDS011;23223;51.006;7.610;2023-11-21T07:50:56;14.65;;;9.88;;
37339;SDS011;23223;51.006;7.610;2023-11-21T07:53:23;19.25;;;12.23;;
37339;SDS011;23223;51.006;7.610;2023-11-21T07:55:50;20.08;;;11.23;;
37339;SDS011;23223;51.006;7.610;2023-11-21T07:58:16;22.67;;;12.75;;
37339;SDS011;23223;51.006;7.610;2023-11-21T08:00:41;25.80;;;12.95;;
37339;SDS011;23223;51.006;7.610;2023-11-21T08:03:07;20.23;;;12.43;;
37339;SDS011;23223;51.006;7.610;2023-11-21T08:05:32;25.65;;;12.70;;
37339;SDS011;23223;51.006;7.610;2023-11-21T08:07:58;18.67;;;12.73;;
37339;SDS011;23223;51.006;7.610;2023-11-21T08:10:24;22.70;;;12.32;;
37339;SDS011;23223;51.006;7.610;2023-11-21T08:12:50;21.30;;;12.52;;
37339;SDS011;23223;51.006;7.610;2023-11-21T08:15:15;39.80;;;14.35;;
37339;SDS011;23223;51.006;7.610;2023-11-21T08:17:41;25.17;;;13.68;;
37339;SDS011;23223;51.006;7.610;2023-11-21T08:20:06;23.52;;;13.00;;
37339;SDS011;23223;51.006;7.610;2023-11-21T08:22:33;31.92;;;13.38;;
37339;SDS011;23223;51.006;7.610;2023-11-21T08:24:59;26.65;;;13.57;;
37339;SDS011;23223;51.006;7.610;2023-11-21T08:27:25;25.02;;;13.55;;
37339;SDS011;23223;51.006;7.610;2023-11-21T08:29:50;25.15;;;13.70;;
37339;SDS011;23223;51.006;7.610;2023-11-21T08:32:17;29.48;;;13.38;;
37339;SDS011;23223;51.006;7.610;2023-11-21T08:34:43;20.13;;;13.30;;
37339;SDS011;23223;51.006;7.610;2023-11-21T08:37:10;20.20;;;11.63;;
37339;SDS011;23223;51.006;7.610;2023-11-21T08:39:39;19.98;;;12.02;;
37339;SDS011;23223;51.006;7.610;2023-11-21T08:42:06;15.35;;;9.18;;
37339;SDS011;23223;51.006;7.610;2023-11-21T08:44:33;27.50;;;13.40;;
37339;SDS011;23223;51.006;7.610;2023-11-21T08:46:58;16.85;;;11.73;;
37339;SDS011;23223;51.006;7.610;2023-11-21T08:49:24;22.15;;;11.45;;
37339;SDS011;23223;51.006;7.610;2023-11-21T08:51:52;23.38;;;12.15;;
37339;SDS011;23223;51.006;7.610;2023-11-21T08:54:20;30.92;;;12.43;;
37339;SDS011;23223;51.006;7.610;2023-11-21T08:56:46;20.75;;;12.63;;
37339;SDS011;23223;51.006;7.610;2023-11-21T08:59:12;22.23;;;12.93;;
37339;SDS011;23223;51.006;7.610;2023-11-21T09:01:39;12.70;;;7.43;;
37339;SDS011;23223;51.006;7.610;2023-11-21T09:04:05;22.63;;;13.02;;
37339;SDS011;23223;51.006;7.610;2023-11-21T09:06:31;18.60;;;11.35;;
37339;SDS011;23223;51.006;7.610;2023-11-21T09:08:56;18.75;;;10.50;;
37339;SDS011;23223;51.006;7.610;2023-11-21T09:11:22;26.88;;;14.32;;
37339;SDS011;23223;51.006;7.610;2023-11-21T09:13:52;18.20;;;11.95;;
37339;SDS011;23223;51.006;7.610;2023-11-21T09:16:17;19.20;;;12.27;;
37339;SDS011;23223;51.006;7.610;2023-11-21T09:18:43;18.90;;;10.18;;
37339;SDS011;23223;51.006;7.610;2023-11-21T09:21:10;27.88;;;14.93;;
37339;SDS011;23223;51.006;7.610;2023-11-21T09:23:35;24.48;;;15.52;;
37339;SDS011;23223;51.006;7.610;2023-11-21T09:26:01;26.98;;;16.02;;
37339;SDS011;23223;51.006;7.610;2023-11-21T09:28:27;18.38;;;11.30;;
37339;SDS011;23223;51.006;7.610;2023-11-21T09:30:55;29.20;;;16.55;;
37339;SDS011;23223;51.006;7.610;2023-11-21T09:33:21;32.58;;;16.98;;
37339;SDS011;23223;51.006;7.610;2023-11-21T09:35:49;20.73;;;13.27;;
37339;SDS011;23223;51.006;7.610;2023-11-21T09:38:16;29.33;;;16.50;;
37339;SDS011;23223;51.006;7.610;2023-11-21T09:40:41;27.75;;;16.65;;
37339;SDS011;23223;51.006;7.610;2023-11-21T09:43:14;11.00;;;7.95;;
37339;SDS011;23223;51.006;7.610;2023-11-21T09:45:43;28.00;;;16.48;;
37339;SDS011;23223;51.006;7.610;2023-11-21T09:48:12;23.52;;;12.02;;
37339;SDS011;23223;51.006;7.610;2023-11-21T09:50:39;18.77;;;10.85;;
37339;SDS011;23223;51.006;7.610;2023-11-21T09:53:18;22.45;;;12.20;;
37339;SDS011;23223;51.006;7.610;2023-11-21T09:55:52;13.07;;;9.13;;
37339;SDS011;23223;51.006;7.610;2023-11-21T09:58:18;35.22;;;18.00;;
37339;SDS011;23223;51.006;7.610;2023-11-21T10:00:47;17.92;;;12.20;;
37339;SDS011;23223;51.006;7.610;2023-11-21T10:03:13;26.50;;;15.02;;
37339;SDS011;23223;51.006;7.610;2023-11-21T10:05:40;29.77;;;17.52;;
37339;SDS011;23223;51.006;7.610;2023-11-21T10:08:10;33.88;;;18.70;;
37339;SDS011;23223;51.006;7.610;2023-11-21T10:10:37;26.48;;;14.82;;
37339;SDS011;23223;51.006;7.610;2023-11-21T10:13:04;34.42;;;17.33;;
37339;SDS011;23223;51.006;7.610;2023-11-21T10:15:33;19.75;;;11.75;;
37339;SDS011;23223;51.006;7.610;2023-11-21T10:18:00;33.65;;;17.52;;
37339;SDS011;23223;51.006;7.610;2023-11-21T10:20:32;28.73;;;16.08;;
37339;SDS011;23223;51.006;7.610;2023-11-21T10:23:03;27.63;;;18.60;;
37339;SDS011;23223;51.006;7.610;2023-11-21T10:25:29;23.33;;;13.50;;
37339;SDS011;23223;51.006;7.610;2023-11-21T10:27:59;30.92;;;16.63;;
37339;SDS011;23223;51.006;7.610;2023-11-21T10:30:36;27.05;;;16.63;;
37339;SDS011;23223;51.006;7.610;2023-11-21T10:33:06;22.63;;;12.77;;
37339;SDS011;23223;51.006;7.610;2023-11-21T10:35:45;31.90;;;17.42;;
37339;SDS011;23223;51.006;7.610;2023-11-21T10:38:15;26.38;;;14.82;;
37339;SDS011;23223;51.006;7.610;2023-11-21T10:40:41;34.25;;;15.57;;
37339;SDS011;23223;51.006;7.610;2023-11-21T10:43:10;24.15;;;11.70;;
37339;SDS011;23223;51.006;7.610;2023-11-21T10:45:39;32.97;;;17.58;;
37339;SDS011;23223;51.006;7.610;2023-11-21T10:48:06;40.38;;;21.55;;
37339;SDS011;23223;51.006;7.610;2023-11-21T10:50:42;31.05;;;16.55;;
37339;SDS011;23223;51.006;7.610;2023-11-21T10:53:09;24.95;;;13.73;;
37339;SDS011;23223;51.006;7.610;2023-11-21T10:55:36;21.88;;;12.85;;
37339;SDS011;23223;51.006;7.610;2023-11-21T10:58:03;26.33;;;14.93;;
37339;SDS011;23223;51.006;7.610;2023-11-21T11:00:30;29.83;;;13.80;;
37339;SDS011;23223;51.006;7.610;2023-11-21T11:02:57;36.50;;;17.60;;
37339;SDS011;23223;51.006;7.610;2023-11-21T11:05:24;19.75;;;11.55;;
37339;SDS011;23223;51.006;7.610;2023-11-21T11:07:51;18.73;;;10.77;;
37339;SDS011;23223;51.006;7.610;2023-11-21T11:10:30;17.00;;;10.18;;
37339;SDS011;23223;51.006;7.610;2023-11-21T11:12:56;26.58;;;13.32;;
37339;SDS011;23223;51.006;7.610;2023-11-21T11:15:23;31.67;;;16.40;;
37339;SDS011;23223;51.006;7.610;2023-11-21T11:17:49;37.83;;;16.45;;
37339;SDS011;23223;51.006;7.610;2023-11-21T11:20:15;30.63;;;16.48;;
37339;SDS011;23223;51.006;7.610;2023-11-21T11:28:04;29.98;;;15.38;;
37339;SDS011;23223;51.006;7.610;2023-11-21T11:33:18;23.10;;;13.10;;
37339;SDS011;23223;51.006;7.610;2023-11-21T11:38:21;32.33;;;16.17;;
37339;SDS011;23223;51.006;7.610;2023-11-21T11:40:48;20.52;;;12.20;;
37339;SDS011;23223;51.006;7.610;2023-11-21T11:43:27;23.52;;;11.65;;
37339;SDS011;23223;51.006;7.610;2023-11-21T11:45:56;31.38;;;15.50;;
37339;SDS011;23223;51.006;7.610;2023-11-21T11:48:24;20.40;;;10.95;;
37339;SDS011;23223;51.006;7.610;2023-11-21T11:51:06;28.65;;;13.95;;
37339;SDS011;23223;51.006;7.610;2023-11-21T11:53:37;29.95;;;14.48;;
37339;SDS011;23223;51.006;7.610;2023-11-21T11:56:26;13.90;;;8.70;;
37339;SDS011;23223;51.006;7.610;2023-11-21T11:59:04;16.98;;;10.02;;
37339;SDS011;23223;51.006;7.610;2023-11-21T12:01:32;24.23;;;12.50;;
37339;SDS011;23223;51.006;7.610;2023-11-21T12:06:45;23.60;;;11.10;;
37339;SDS011;23223;51.006;7.610;2023-11-21T12:09:17;24.85;;;11.57;;
37339;SDS011;23223;51.006;7.610;2023-11-21T12:11:45;19.00;;;9.57;;
37339;SDS011;23223;51.006;7.610;2023-11-21T12:14:12;17.77;;;9.07;;
37339;SDS011;23223;51.006;7.610;2023-11-21T12:16:38;18.40;;;8.98;;
37339;SDS011;23223;51.006;7.610;2023-11-21T12:19:04;17.55;;;8.82;;
37339;SDS011;23223;51.006;7.610;2023-11-21T12:21:30;20.83;;;8.68;;
37339;SDS011;23223;51.006;7.610;2023-11-21T12:23:57;23.48;;;10.68;;
37339;SDS011;23223;51.006;7.610;2023-11-21T12:26:25;16.58;;;9.40;;
37339;SDS011;23223;51.006;7.610;2023-11-21T12:28:52;13.35;;;7.15;;
37339;SDS011;23223;51.006;7.610;2023-11-21T12:31:20;14.00;;;7.30;;
37339;SDS011;23223;51.006;7.610;2023-11-21T12:33:46;21.05;;;8.35;;
37339;SDS011;23223;51.006;7.610;2023-11-21T12:36:12;26.50;;;9.00;;
37339;SDS011;23223;51.006;7.610;2023-11-21T12:38:38;12.77;;;7.47;;
37339;SDS011;23223;51.006;7.610;2023-11-21T12:41:04;17.92;;;7.53;;
37339;SDS011;23223;51.006;7.610;2023-11-21T12:43:31;22.02;;;9.63;;
37339;SDS011;23223;51.006;7.610;2023-11-21T12:46:06;25.98;;;11.10;;
37339;SDS011;23223;51.006;7.610;2023-11-21T12:48:39;14.55;;;7.30;;
37339;SDS011;23223;51.006;7.610;2023-11-21T12:51:09;15.48;;;6.00;;
37339;SDS011;23223;51.006;7.610;2023-11-21T12:53:36;8.57;;;5.13;;
37339;SDS011;23223;51.006;7.610;2023-11-21T12:56:12;14.93;;;7.28;;
37339;SDS011;23223;51.006;7.610;2023-11-21T12:58:39;20.40;;;8.90;;
37339;SDS011;23223;51.006;7.610;2023-11-21T13:01:09;20.98;;;9.82;;
37339;SDS011;23223;51.006;7.610;2023-11-21T13:03:39;18.02;;;7.80;;
37339;SDS011;23223;51.006;7.610;2023-11-21T13:06:06;17.70;;;8.00;;
37339;SDS011;23223;51.006;7.610;2023-11-21T13:08:32;18.75;;;7.85;;
37339;SDS011;23223;51.006;7.610;2023-11-21T13:10:58;18.08;;;8.10;;
37339;SDS011;23223;51.006;7.610;2023-11-21T13:13:26;20.38;;;9.45;;
37339;SDS011;23223;51.006;7.610;2023-11-21T13:15:54;13.00;;;6.50;;
37339;SDS011;23223;51.006;7.610;2023-11-21T13:18:21;16.00;;;7.70;;
37339;SDS011;23223;51.006;7.610;2023-11-21T13:20:54;15.50;;;7.00;;
37339;SDS011;23223;51.006;7.610;2023-11-21T13:23:22;18.52;;;9.82;;
37339;SDS011;23223;51.006;7.610;2023-11-21T13:25:49;18.38;;;8.52;;
37339;SDS011;23223;51.006;7.610;2023-11-21T13:28:15;13.48;;;6.68;;
37339;SDS011;23223;51.006;7.610;2023-11-21T13:30:41;17.85;;;8.13;;
37339;SDS011;23223;51.006;7.610;2023-11-21T13:33:07;17.35;;;7.55;;
37339;SDS011;23223;51.006;7.610;2023-11-21T13:35:36;23.17;;;10.68;;
37339;SDS011;23223;51.006;7.610;2023-11-21T13:38:12;14.35;;;6.47;;
37339;SDS011;23223;51.006;7.610;2023-11-21T13:40:46;18.42;;;6.75;;
37339;SDS011;23223;51.006;7.610;2023-11-21T13:43:14;15.05;;;7.00;;
37339;SDS011;23223;51.006;7.610;2023-11-21T13:45:41;20.80;;;8.45;;
37339;SDS011;23223;51.006;7.610;2023-11-21T13:48:07;22.65;;;7.35;;
37339;SDS011;23223;51.006;7.610;2023-11-21T13:50:48;13.38;;;6.00;;
37339;SDS011;23223;51.006;7.610;2023-11-21T13:53:20;18.25;;;6.10;;
37339;SDS011;23223;51.006;7.610;2023-11-21T13:55:52;12.98;;;5.53;;
37339;SDS011;23223;51.006;7.610;2023-11-21T13:58:25;17.73;;;6.75;;
37339;SDS011;23223;51.006;7.610;2023-11-21T14:01:11;13.48;;;6.43;;
37339;SDS011;23223;51.006;7.610;2023-11-21T14:04:01;15.30;;;5.90;;
37339;SDS011;23223;51.006;7.610;2023-11-21T14:06:47;20.95;;;7.00;;
37339;SDS011;23223;51.006;7.610;2023-11-21T14:09:18;12.70;;;5.78;;
37339;SDS011;23223;51.006;7.610;2023-11-21T14:11:57;13.98;;;6.07;;
37339;SDS011;23223;51.006;7.610;2023-11-21T14:14:25;14.73;;;5.88;;
37339;SDS011;23223;51.006;7.610;2023-11-21T14:16:52;7.70;;;4.18;;
37339;SDS011;23223;51.006;7.610;2023-11-21T14:19:18;13.13;;;5.30;;
37339;SDS011;23223;51.006;7.610;2023-11-21T14:21:44;14.93;;;5.75;;
37339;SDS011;23223;51.006;7.610;2023-11-21T14:24:11;13.90;;;5.07;;
37339;SDS011;23223;51.006;7.610;2023-11-21T14:26:43;14.98;;;6.97;;
37339;SDS011;23223;51.006;7.610;2023-11-21T14:29:13;14.98;;;5.55;;
37339;SDS011;23223;51.006;7.610;2023-11-21T14:31:42;11.68;;;6.18;;
37339;SDS011;23223;51.006;7.610;2023-11-21T14:34:09;11.25;;;5.97;;
37339;SDS011;23223;51.006;7.610;2023-11-21T14:36:35;7.85;;;5.30;;
37339;SDS011;23223;51.006;7.610;2023-11-21T14:39:08;9.70;;;4.93;;
37339;SDS011;23223;51.006;7.610;2023-11-21T14:41:45;9.30;;;4.35;;
37339;SDS011;23223;51.006;7.610;2023-11-21T14:44:11;8.25;;;4.57;;
37339;SDS011;23223;51.006;7.610;2023-11-21T14:46:37;5.63;;;4.18;;